createdAt,value
2023-05-07T00:01:53.645Z,1.42
2023-05-07T00:04:13.947Z,1.70
2023-05-07T00:06:34.080Z,1.50
2023-05-07T00:08:54.174Z,1.63
2023-05-07T00:11:14.325Z,1.70
2023-05-07T00:13:35.731Z,2.20
2023-05-07T00:15:56.047Z,3.88
2023-05-07T00:18:16.289Z,1.60
2023-05-07T00:20:36.719Z,1.40
2023-05-07T00:22:56.728Z,1.70
2023-05-07T00:25:16.940Z,2.42
2023-05-07T00:27:37.126Z,1.75
2023-05-07T00:29:57.148Z,1.90
2023-05-07T00:32:17.209Z,2.17
2023-05-07T00:34:37.497Z,1.98
2023-05-07T00:36:57.772Z,1.77
2023-05-07T00:39:18.099Z,1.50
2023-05-07T00:41:38.036Z,1.88
2023-05-07T00:43:58.284Z,2.35
2023-05-07T00:46:18.807Z,1.83
2023-05-07T00:48:39.095Z,1.55
2023-05-07T00:50:59.371Z,2.15
2023-05-07T00:53:19.668Z,2.45
2023-05-07T00:55:40.133Z,2.10
2023-05-07T00:58:00.718Z,1.88
2023-05-07T01:00:21.433Z,1.63
2023-05-07T01:02:42.170Z,2.58
2023-05-07T01:05:03.923Z,2.13
2023-05-07T01:07:24.944Z,2.13
2023-05-07T01:09:45.094Z,2.10
2023-05-07T01:12:05.829Z,2.20
2023-05-07T01:14:26.510Z,2.50
2023-05-07T01:16:46.673Z,3.08
2023-05-07T01:19:07.848Z,2.58
2023-05-07T01:21:28.117Z,1.67
2023-05-07T01:23:48.374Z,2.30
2023-05-07T01:26:08.424Z,2.40
2023-05-07T01:28:28.662Z,1.70
2023-05-07T01:30:50.921Z,1.70
2023-05-07T01:33:14.413Z,3.08
2023-05-07T01:35:39.928Z,2.70
2023-05-07T01:38:01.114Z,2.17
2023-05-07T01:40:21.851Z,2.63
2023-05-07T01:42:43.011Z,6.53
2023-05-07T01:45:03.246Z,2.10
2023-05-07T01:47:24.127Z,2.90
2023-05-07T01:49:44.643Z,2.92
2023-05-07T01:52:04.988Z,1.58
2023-05-07T01:54:28.673Z,2.20
2023-05-07T01:56:49.313Z,2.10
2023-05-07T01:59:09.442Z,2.13
2023-05-07T02:01:30.223Z,2.10
2023-05-07T02:03:50.890Z,3.78
2023-05-07T02:06:11.011Z,2.85
2023-05-07T02:08:31.348Z,2.42
2023-05-07T02:10:51.873Z,2.65
2023-05-07T02:13:12.338Z,2.35
2023-05-07T02:15:32.597Z,2.58
2023-05-07T02:18:06.753Z,2.72
2023-05-07T02:20:26.880Z,2.85
2023-05-07T02:22:46.933Z,2.22
2023-05-07T02:25:07.350Z,2.38
2023-05-07T02:27:27.706Z,2.10
2023-05-07T02:29:47.892Z,1.92
2023-05-07T02:32:08.040Z,2.08
2023-05-07T02:34:28.286Z,2.20
2023-05-07T02:36:48.168Z,1.77
2023-05-07T02:39:08.237Z,2.53
2023-05-07T02:41:28.388Z,2.83
2023-05-07T02:43:48.388Z,2.35
2023-05-07T02:46:09.781Z,2.17
2023-05-07T02:48:30.257Z,2.22
2023-05-07T02:50:50.186Z,2.88
2023-05-07T02:53:10.163Z,2.38
2023-05-07T02:55:30.295Z,2.90
2023-05-07T02:57:50.469Z,2.40
2023-05-07T03:00:13.869Z,2.38
2023-05-07T03:02:33.913Z,1.73
2023-05-07T03:04:53.835Z,2.55
2023-05-07T03:07:14.711Z,2.83
2023-05-07T03:09:35.079Z,2.70
2023-05-07T03:11:55.209Z,2.42
2023-05-07T03:14:15.557Z,2.45
2023-05-07T03:16:35.581Z,2.90
2023-05-07T03:18:55.725Z,2.30
2023-05-07T03:21:15.901Z,2.53
2023-05-07T03:23:36.179Z,2.30
2023-05-07T03:25:56.203Z,2.00
2023-05-07T03:28:16.240Z,2.55
2023-05-07T03:30:36.551Z,2.00
2023-05-07T03:32:56.794Z,2.10
2023-05-07T03:35:17.369Z,2.75
2023-05-07T03:37:37.454Z,2.38
2023-05-07T03:39:57.784Z,3.30
2023-05-07T03:42:17.944Z,2.58
2023-05-07T03:44:38.321Z,2.42
2023-05-07T03:46:58.385Z,2.53
2023-05-07T03:49:18.556Z,1.98
2023-05-07T03:51:38.942Z,2.60
2023-05-07T03:53:59.020Z,2.78
2023-05-07T03:56:19.781Z,2.47
2023-05-07T03:58:39.920Z,2.92
2023-05-07T04:01:00.009Z,3.17
2023-05-07T04:03:20.394Z,2.25
2023-05-07T04:05:40.654Z,2.78
2023-05-07T04:08:01.311Z,3.63
2023-05-07T04:10:21.906Z,3.58
2023-05-07T04:12:42.035Z,2.88
2023-05-07T04:15:02.254Z,3.40
2023-05-07T04:17:22.721Z,2.45
2023-05-07T04:19:45.608Z,3.90
2023-05-07T04:22:05.660Z,3.05
2023-05-07T04:24:25.862Z,2.92
2023-05-07T04:26:46.078Z,2.90
2023-05-07T04:29:06.103Z,2.45
2023-05-07T04:31:26.349Z,2.78
2023-05-07T04:33:46.441Z,3.15
2023-05-07T04:36:06.709Z,2.95
2023-05-07T04:38:27.009Z,2.55
2023-05-07T04:40:47.270Z,3.85
2023-05-07T04:43:09.376Z,2.75
2023-05-07T04:45:30.111Z,3.60
2023-05-07T04:47:50.612Z,2.92
2023-05-07T04:50:11.331Z,3.15
2023-05-07T04:52:31.813Z,2.47
2023-05-07T04:54:52.120Z,2.63
2023-05-07T04:57:12.472Z,3.53
2023-05-07T04:59:33.340Z,3.05
2023-05-07T05:01:53.796Z,3.78
2023-05-07T05:04:13.934Z,3.45
2023-05-07T05:06:34.212Z,3.35
2023-05-07T05:08:54.940Z,3.10
2023-05-07T05:11:15.436Z,4.32
2023-05-07T05:13:35.661Z,4.75
2023-05-07T05:15:56.369Z,2.65
2023-05-07T05:18:16.457Z,3.03
2023-05-07T05:20:36.440Z,2.78
2023-05-07T05:22:56.475Z,2.50
2023-05-07T05:25:16.521Z,2.15
2023-05-07T05:27:36.714Z,2.45
2023-05-07T05:29:57.200Z,2.67
2023-05-07T05:32:17.501Z,2.53
2023-05-07T05:34:37.664Z,2.03
2023-05-07T05:36:57.718Z,3.72
2023-05-07T05:39:18.320Z,2.55
2023-05-07T05:41:38.614Z,6.07
2023-05-07T05:43:58.789Z,3.25
2023-05-07T05:46:18.879Z,2.78
2023-05-07T05:48:38.812Z,2.30
2023-05-07T05:50:58.888Z,2.72
2023-05-07T05:53:18.933Z,3.42
2023-05-07T05:55:39.204Z,3.30
2023-05-07T05:58:00.083Z,2.83
2023-05-07T06:00:22.697Z,3.03
2023-05-07T06:02:43.179Z,3.00
2023-05-07T06:05:03.381Z,2.60
2023-05-07T06:07:23.522Z,2.05
2023-05-07T06:09:43.759Z,2.08
2023-05-07T06:12:03.753Z,1.77
2023-05-07T06:14:23.851Z,1.42
2023-05-07T06:16:45.179Z,1.75
2023-05-07T06:19:05.548Z,1.80
2023-05-07T06:21:25.577Z,2.10
2023-05-07T06:23:45.653Z,1.70
2023-05-07T06:26:06.068Z,4.75
2023-05-07T06:28:26.276Z,1.60
2023-05-07T06:30:46.400Z,1.45
2023-05-07T06:33:06.422Z,1.70
2023-05-07T06:35:27.015Z,1.75
2023-05-07T06:37:47.301Z,1.58
2023-05-07T06:40:07.930Z,7.00
2023-05-07T06:42:28.205Z,1.63
2023-05-07T06:44:48.505Z,1.55
2023-05-07T06:47:08.797Z,1.58
2023-05-07T06:49:29.050Z,2.25
2023-05-07T06:51:49.598Z,1.60
2023-05-07T06:54:11.802Z,1.20
2023-05-07T06:56:32.635Z,1.20
2023-05-07T06:58:53.126Z,1.10
2023-05-07T07:01:13.315Z,1.25
2023-05-07T07:03:33.597Z,2.35
2023-05-07T07:05:54.510Z,0.93
2023-05-07T07:08:15.054Z,1.20
2023-05-07T07:10:35.492Z,1.20
2023-05-07T07:12:55.618Z,1.02
2023-05-07T07:15:15.976Z,1.05
2023-05-07T07:17:36.223Z,1.10
2023-05-07T07:19:56.791Z,1.00
2023-05-07T07:22:17.765Z,1.65
2023-05-07T07:24:38.224Z,1.10
2023-05-07T07:26:58.531Z,1.67
2023-05-07T07:29:19.051Z,41.70
2023-05-07T07:31:40.196Z,1.00
2023-05-07T07:34:00.179Z,0.90
2023-05-07T07:36:21.918Z,1.00
2023-05-07T07:38:43.985Z,1.20
2023-05-07T07:41:04.102Z,221.45
2023-05-07T07:43:24.326Z,329.27
2023-05-07T07:45:44.402Z,298.92
2023-05-07T07:48:05.018Z,9.55
2023-05-07T07:52:52.288Z,1.88
2023-05-07T07:55:12.514Z,63.15
2023-05-07T07:57:32.843Z,0.93
2023-05-07T07:59:52.947Z,0.90
2023-05-07T08:02:13.278Z,0.82
2023-05-07T08:04:33.511Z,1.17
2023-05-07T08:06:54.672Z,0.88
2023-05-07T08:09:14.564Z,0.93
2023-05-07T08:11:35.063Z,0.90
2023-05-07T08:13:55.942Z,5.18
2023-05-07T08:16:15.997Z,1.23
2023-05-07T08:18:36.187Z,4.53
2023-05-07T08:20:56.268Z,2.33
2023-05-07T08:23:16.555Z,1.65
2023-05-07T08:25:37.780Z,1.77
2023-05-07T08:27:57.837Z,6.95
2023-05-07T08:30:17.912Z,0.80
2023-05-07T08:32:38.216Z,2.10
2023-05-07T08:34:58.344Z,1.88
2023-05-07T08:37:18.577Z,0.80
2023-05-07T08:39:38.919Z,2.05
2023-05-07T08:42:02.392Z,1.63
2023-05-07T08:44:23.650Z,0.90
2023-05-07T08:46:48.538Z,1.95
2023-05-07T08:49:08.678Z,0.80
2023-05-07T08:51:28.859Z,1.88
2023-05-07T08:53:50.269Z,0.70
2023-05-07T08:56:10.474Z,0.95
2023-05-07T08:58:30.891Z,1.95
2023-05-07T09:00:51.997Z,0.80
2023-05-07T09:03:13.013Z,0.77
2023-05-07T09:05:33.272Z,0.80
2023-05-07T09:07:54.598Z,0.80
2023-05-07T09:10:14.868Z,1.30
2023-05-07T09:12:38.324Z,0.95
2023-05-07T09:15:00.054Z,0.80
2023-05-07T09:17:20.382Z,1.30
2023-05-07T09:19:40.576Z,1.73
2023-05-07T09:22:01.831Z,0.70
2023-05-07T09:24:22.363Z,0.77
2023-05-07T09:26:42.547Z,1.73
2023-05-07T09:29:02.953Z,1.52
2023-05-07T09:31:23.748Z,0.70
2023-05-07T09:33:43.754Z,0.77
2023-05-07T09:36:05.373Z,1.00
2023-05-07T09:38:28.894Z,1.35
2023-05-07T09:41:02.316Z,1.27
2023-05-07T09:45:42.175Z,0.73
2023-05-07T09:48:04.162Z,0.80
2023-05-07T09:50:32.726Z,0.80
2023-05-07T09:52:53.402Z,0.77
2023-05-07T09:55:14.088Z,0.70
2023-05-07T09:57:35.746Z,0.60
2023-05-07T09:59:57.665Z,0.70
2023-05-07T10:02:19.044Z,0.70
2023-05-07T10:04:39.290Z,0.60
2023-05-07T10:07:00.148Z,0.70
2023-05-07T10:09:20.720Z,0.98
2023-05-07T10:11:40.683Z,0.70
2023-05-07T10:14:04.826Z,0.63
2023-05-07T10:16:27.577Z,0.73
2023-05-07T10:18:48.728Z,0.70
2023-05-07T10:21:09.709Z,0.68
2023-05-07T10:23:30.906Z,0.60
2023-05-07T10:25:52.451Z,0.70
2023-05-07T10:28:14.230Z,0.70
2023-05-07T10:30:41.058Z,0.70
2023-05-07T10:33:06.309Z,1.25
2023-05-07T10:35:30.816Z,0.60
2023-05-07T10:37:51.293Z,0.88
2023-05-07T10:40:12.420Z,0.65
2023-05-07T10:42:32.606Z,0.70
2023-05-07T10:44:52.713Z,0.70
2023-05-07T10:47:14.012Z,0.70
2023-05-07T10:49:34.232Z,0.70
2023-05-07T10:52:16.700Z,0.85
2023-05-07T10:54:37.900Z,0.70
2023-05-07T10:56:58.052Z,0.70
2023-05-07T10:59:21.552Z,0.70
2023-05-07T11:01:54.227Z,3.35
2023-05-07T11:06:34.949Z,1.00
2023-05-07T11:08:59.036Z,0.70
2023-05-07T11:11:20.023Z,0.65
2023-05-07T11:13:46.417Z,1.48
2023-05-07T11:16:17.540Z,0.60
2023-05-07T11:18:48.367Z,1.60
2023-05-07T11:21:08.925Z,0.60
2023-05-07T11:23:35.635Z,1.65
2023-05-07T11:26:00.188Z,0.77
2023-05-07T11:28:20.681Z,0.90
2023-05-07T11:30:42.940Z,0.63
2023-05-07T11:33:03.607Z,0.65
2023-05-07T11:35:25.175Z,0.85
2023-05-07T11:37:45.968Z,1.73
2023-05-07T11:40:07.144Z,0.50
2023-05-07T11:42:27.465Z,1.55
2023-05-07T11:44:48.541Z,0.85
2023-05-07T11:47:08.729Z,0.70
2023-05-07T11:49:29.966Z,0.60
2023-05-07T11:51:50.079Z,0.60
2023-05-07T11:54:11.673Z,0.68
2023-05-07T11:56:35.004Z,0.60
2023-05-07T11:58:55.291Z,0.70
2023-05-07T12:01:16.813Z,1.48
2023-05-07T12:03:41.836Z,4.07
2023-05-07T12:06:02.246Z,0.50
2023-05-07T12:08:22.738Z,0.60
2023-05-07T12:10:43.782Z,0.63
2023-05-07T12:13:03.899Z,0.88
2023-05-07T12:15:24.038Z,0.57
2023-05-07T12:17:44.871Z,0.50
2023-05-07T12:20:05.519Z,0.60
2023-05-07T12:22:25.478Z,0.60
2023-05-07T12:24:57.949Z,1.55
2023-05-07T12:27:18.548Z,0.60
2023-05-07T12:29:44.003Z,0.60
2023-05-07T12:32:05.863Z,1.08
2023-05-07T12:34:27.258Z,0.98
2023-05-07T12:36:49.125Z,1.95
2023-05-07T12:39:10.277Z,0.50
2023-05-07T12:41:30.727Z,0.50
2023-05-07T12:43:50.858Z,0.93
2023-05-07T12:46:11.157Z,1.35
2023-05-07T12:48:31.580Z,0.50
2023-05-07T12:50:52.203Z,1.40
2023-05-07T12:53:13.204Z,0.98
2023-05-07T12:55:35.189Z,0.60
2023-05-07T12:57:57.710Z,1.38
2023-05-07T13:00:18.241Z,0.50
2023-05-07T13:02:39.509Z,1.50
2023-05-07T13:04:59.961Z,1.35
2023-05-07T13:07:20.346Z,0.50
2023-05-07T13:09:40.640Z,0.73
2023-05-07T13:12:01.666Z,0.50
2023-05-07T13:14:22.281Z,0.50
2023-05-07T13:16:42.474Z,2.38
2023-05-07T13:19:02.669Z,0.82
2023-05-07T13:21:22.928Z,0.50
2023-05-07T13:23:43.249Z,0.50
2023-05-07T13:26:08.670Z,2.10
2023-05-07T13:28:31.463Z,0.50
2023-05-07T13:30:54.860Z,0.82
2023-05-07T13:33:16.320Z,2.05
2023-05-07T13:35:36.458Z,0.93
2023-05-07T13:37:56.799Z,0.45
2023-05-07T13:40:16.760Z,0.50
2023-05-07T13:42:37.046Z,0.50
2023-05-07T13:44:57.794Z,0.55
2023-05-07T13:47:18.135Z,0.50
2023-05-07T13:49:38.221Z,0.50
2023-05-07T13:51:58.413Z,0.60
2023-05-07T13:54:18.380Z,0.40
2023-05-07T13:56:38.588Z,0.50
2023-05-07T13:59:00.846Z,0.85
2023-05-07T14:01:21.352Z,0.50
2023-05-07T14:03:41.749Z,0.50
2023-05-07T14:06:02.022Z,0.95
2023-05-07T14:08:22.188Z,0.73
2023-05-07T14:10:42.338Z,0.50
2023-05-07T14:13:02.480Z,0.52
2023-05-07T14:15:22.667Z,0.50
2023-05-07T14:17:43.195Z,0.50
2023-05-07T14:20:03.442Z,1.65
2023-05-07T14:22:23.821Z,0.50
2023-05-07T14:24:46.728Z,0.68
2023-05-07T14:27:08.616Z,0.50
2023-05-07T14:29:28.925Z,0.50
2023-05-07T14:31:49.215Z,1.15
2023-05-07T14:34:09.325Z,1.48
2023-05-07T14:36:30.573Z,1.65
2023-05-07T14:38:50.707Z,0.50
2023-05-07T14:41:10.783Z,0.60
2023-05-07T14:43:30.793Z,0.40
2023-05-07T14:45:50.878Z,1.63
2023-05-07T14:48:15.332Z,2.35
2023-05-07T14:50:35.440Z,0.50
2023-05-07T14:52:55.515Z,0.50
2023-05-07T14:55:15.451Z,0.50
2023-05-07T14:57:36.157Z,0.70
2023-05-07T14:59:56.240Z,0.50
2023-05-07T15:02:21.044Z,0.60
2023-05-07T15:04:46.046Z,0.40
2023-05-07T15:07:06.385Z,1.02
2023-05-07T15:09:27.029Z,1.27
2023-05-07T15:11:47.231Z,0.40
2023-05-07T15:14:07.440Z,0.55
2023-05-07T15:16:27.673Z,1.33
2023-05-07T15:18:47.937Z,1.02
2023-05-07T15:21:08.200Z,0.77
2023-05-07T15:23:28.836Z,1.27
2023-05-07T15:25:50.486Z,0.70
2023-05-07T15:28:12.909Z,0.70
2023-05-07T15:30:33.048Z,0.60
2023-05-07T15:32:53.417Z,0.60
2023-05-07T15:35:14.367Z,0.55
2023-05-07T15:37:35.195Z,0.60
2023-05-07T15:39:55.643Z,0.60
2023-05-07T15:42:16.088Z,1.45
2023-05-07T15:44:36.171Z,0.90
2023-05-07T15:46:59.749Z,1.67
2023-05-07T15:49:20.129Z,0.73
2023-05-07T15:51:40.551Z,1.30
2023-05-07T15:54:00.714Z,0.60
2023-05-07T15:56:21.129Z,0.85
2023-05-07T15:58:41.675Z,0.57
2023-05-07T16:01:02.209Z,0.60
2023-05-07T16:03:22.521Z,0.65
2023-05-07T16:05:42.963Z,1.38
2023-05-07T16:08:03.534Z,4.03
2023-05-07T16:10:23.797Z,0.60
2023-05-07T16:12:44.170Z,0.70
2023-05-07T16:15:04.424Z,0.70
2023-05-07T16:17:25.489Z,1.85
2023-05-07T16:19:45.701Z,1.00
2023-05-07T16:22:06.325Z,2.05
2023-05-07T16:24:26.747Z,1.30
2023-05-07T16:26:47.081Z,0.70
2023-05-07T16:29:07.719Z,0.60
2023-05-07T16:31:28.205Z,0.60
2023-05-07T16:33:48.821Z,3.88
2023-05-07T16:36:09.194Z,2.33
2023-05-07T16:38:32.358Z,0.68
2023-05-07T16:40:52.933Z,1.10
2023-05-07T16:43:13.191Z,1.95
2023-05-07T16:45:33.390Z,1.67
2023-05-07T16:47:53.673Z,0.65
2023-05-07T16:50:13.837Z,0.70
2023-05-07T16:52:33.909Z,1.35
2023-05-07T16:54:57.633Z,0.70
2023-05-07T16:57:17.736Z,1.48
2023-05-07T16:59:38.084Z,0.70
2023-05-07T17:01:59.201Z,0.70
2023-05-07T17:04:19.796Z,0.60
2023-05-07T17:06:40.349Z,1.20
2023-05-07T17:09:00.417Z,0.70
2023-05-07T17:11:20.918Z,0.70
2023-05-07T17:13:41.379Z,0.70
2023-05-07T17:16:01.701Z,0.70
2023-05-07T17:18:21.773Z,1.95
2023-05-07T17:20:42.216Z,0.70
2023-05-07T17:23:02.174Z,0.70
2023-05-07T17:25:23.035Z,0.70
2023-05-07T17:27:43.119Z,1.25
2023-05-07T17:30:03.389Z,0.70
2023-05-07T17:32:23.970Z,0.75
2023-05-07T17:34:44.187Z,0.80
2023-05-07T17:37:04.211Z,1.98
2023-05-07T17:39:24.450Z,3.25
2023-05-07T17:41:44.812Z,1.20
2023-05-07T17:44:05.101Z,1.15
2023-05-07T17:46:25.414Z,0.70
2023-05-07T17:48:45.452Z,2.60
2023-05-07T17:51:05.778Z,2.17
2023-05-07T17:53:27.714Z,1.75
2023-05-07T17:55:47.914Z,2.20
2023-05-07T17:58:09.125Z,0.70
2023-05-07T18:00:29.321Z,6.80
2023-05-07T18:02:51.842Z,0.80
2023-05-07T18:05:12.412Z,1.00
2023-05-07T18:07:33.235Z,1.60
2023-05-07T18:09:53.663Z,0.70
2023-05-07T18:12:14.036Z,0.70
2023-05-07T18:14:34.215Z,0.73
2023-05-07T18:16:54.486Z,0.70
2023-05-07T18:19:14.640Z,2.80
2023-05-07T18:21:34.779Z,0.77
2023-05-07T18:23:55.267Z,8.18
2023-05-07T18:26:16.118Z,1.40
2023-05-07T18:28:36.841Z,0.70
2023-05-07T18:30:57.196Z,0.70
2023-05-07T18:33:17.333Z,0.90
2023-05-07T18:35:37.562Z,0.77
2023-05-07T18:37:57.913Z,0.70
2023-05-07T18:40:17.989Z,0.70
2023-05-07T18:42:37.860Z,0.70
2023-05-07T18:44:58.221Z,1.85
2023-05-07T18:47:18.727Z,0.60
2023-05-07T18:49:38.616Z,0.60
2023-05-07T18:51:58.733Z,1.30
2023-05-07T18:54:18.659Z,0.70
2023-05-07T18:56:38.650Z,1.33
2023-05-07T18:58:58.575Z,0.93
2023-05-07T19:01:18.758Z,0.80
2023-05-07T19:03:38.781Z,0.80
2023-05-07T19:05:58.850Z,0.80
2023-05-07T19:08:19.075Z,0.80
2023-05-07T19:10:39.144Z,0.90
2023-05-07T19:12:59.297Z,1.63
2023-05-07T19:15:20.208Z,0.80
2023-05-07T19:17:40.241Z,0.77
2023-05-07T19:20:00.422Z,0.82
2023-05-07T19:22:20.669Z,0.80
2023-05-07T19:24:41.008Z,2.40
2023-05-07T19:27:01.039Z,0.80
2023-05-07T19:29:21.089Z,2.42
2023-05-07T19:31:41.282Z,0.90
2023-05-07T19:34:01.484Z,0.90
2023-05-07T19:36:21.640Z,1.25
2023-05-07T19:38:41.829Z,0.90
2023-05-07T19:41:01.998Z,0.90
2023-05-07T19:43:22.136Z,1.20
2023-05-07T19:45:42.854Z,0.90
2023-05-07T19:48:03.267Z,0.90
2023-05-07T19:50:23.742Z,1.85
2023-05-07T19:52:44.054Z,2.38
2023-05-07T19:55:04.512Z,0.90
2023-05-07T19:57:24.959Z,0.90
2023-05-07T19:59:46.928Z,1.00
2023-05-07T20:02:07.442Z,1.05
2023-05-07T20:04:32.204Z,1.77
2023-05-07T20:06:52.206Z,1.13
2023-05-07T20:09:13.025Z,3.13
2023-05-07T20:11:33.182Z,1.60
2023-05-07T20:13:53.276Z,0.93
2023-05-07T20:16:13.404Z,1.95
2023-05-07T20:18:33.489Z,1.80
2023-05-07T20:20:53.702Z,0.90
2023-05-07T20:23:14.065Z,1.33
2023-05-07T20:25:34.336Z,1.02
2023-05-07T20:27:54.696Z,0.98
2023-05-07T20:30:15.239Z,1.02
2023-05-07T20:32:35.994Z,0.90
2023-05-07T20:34:56.251Z,0.90
2023-05-07T20:37:16.827Z,2.60
2023-05-07T20:39:37.357Z,1.48
2023-05-07T20:41:58.046Z,1.17
2023-05-07T20:44:18.387Z,0.95
2023-05-07T20:46:39.065Z,1.33
2023-05-07T20:48:59.263Z,3.40
2023-05-07T20:51:19.380Z,1.10
2023-05-07T20:53:40.110Z,1.00
2023-05-07T20:56:00.520Z,1.17
2023-05-07T20:58:24.390Z,3.60
2023-05-07T21:00:44.664Z,1.40
2023-05-07T21:03:04.943Z,1.30
2023-05-07T21:05:25.535Z,1.23
2023-05-07T21:07:45.618Z,1.20
2023-05-07T21:10:06.241Z,1.15
2023-05-07T21:12:26.543Z,1.45
2023-05-07T21:14:46.698Z,2.20
2023-05-07T21:17:07.964Z,1.33
2023-05-07T21:19:28.544Z,1.20
2023-05-07T21:21:48.654Z,2.47
2023-05-07T21:24:08.904Z,1.95
2023-05-07T21:26:29.172Z,4.10
2023-05-07T21:28:49.472Z,1.30
2023-05-07T21:31:09.862Z,1.50
2023-05-07T21:33:29.900Z,2.00
2023-05-07T21:35:50.216Z,1.35
2023-05-07T21:38:11.804Z,2.00
2023-05-07T21:40:32.227Z,1.80
2023-05-07T21:42:52.534Z,1.50
2023-05-07T21:45:13.057Z,2.65
2023-05-07T21:47:33.663Z,1.10
2023-05-07T21:49:54.005Z,1.30
2023-05-07T21:52:14.817Z,1.30
2023-05-07T21:54:35.431Z,1.45
2023-05-07T21:56:55.656Z,1.55
2023-05-07T21:59:15.988Z,1.67
2023-05-07T22:01:36.633Z,1.60
2023-05-07T22:03:56.644Z,2.92
2023-05-07T22:06:20.951Z,1.60
2023-05-07T22:08:40.967Z,1.30
2023-05-07T22:11:01.252Z,2.08
2023-05-07T22:13:21.750Z,1.48
2023-05-07T22:15:53.195Z,1.17
2023-05-07T22:18:16.897Z,1.48
2023-05-07T22:20:37.236Z,1.25
2023-05-07T22:22:57.450Z,2.97
2023-05-07T22:25:17.729Z,1.40
2023-05-07T22:27:37.744Z,1.60
2023-05-07T22:29:57.923Z,1.30
2023-05-07T22:32:18.001Z,2.33
2023-05-07T22:34:38.066Z,1.35
2023-05-07T22:36:57.913Z,1.63
2023-05-07T22:39:18.164Z,1.50
2023-05-07T22:41:38.259Z,1.40
2023-05-07T22:43:58.502Z,1.70
2023-05-07T22:46:18.410Z,1.20
2023-05-07T22:48:38.663Z,2.17
2023-05-07T22:50:58.863Z,2.78
2023-05-07T22:53:19.338Z,1.15
2023-05-07T22:55:39.551Z,1.30
2023-05-07T22:57:59.853Z,4.80
2023-05-07T23:00:20.191Z,1.80
2023-05-07T23:02:40.689Z,1.77
2023-05-07T23:05:01.328Z,1.58
2023-05-07T23:07:21.292Z,1.80
2023-05-07T23:09:41.582Z,1.52
2023-05-07T23:12:02.592Z,1.52
2023-05-07T23:14:24.548Z,1.60
2023-05-07T23:16:45.226Z,1.52
2023-05-07T23:19:05.234Z,1.60
2023-05-07T23:21:25.423Z,1.33
2023-05-07T23:23:46.979Z,1.40
2023-05-07T23:26:07.224Z,2.35
2023-05-07T23:28:27.561Z,1.77
2023-05-07T23:30:47.608Z,1.98
2023-05-07T23:33:07.985Z,1.30
2023-05-07T23:35:28.155Z,1.50
2023-05-07T23:37:48.676Z,1.50
2023-05-07T23:40:09.382Z,1.50
2023-05-07T23:42:29.282Z,1.40
2023-05-07T23:44:49.798Z,1.40
2023-05-07T23:47:10.120Z,1.38
2023-05-07T23:49:30.302Z,1.33
2023-05-07T23:51:50.505Z,2.00
2023-05-07T23:54:10.903Z,1.48
2023-05-07T23:56:31.191Z,1.95
2023-05-07T23:58:51.276Z,1.52
